sensor_id;sensor_type;location;lat;lon;timestamp;temperature;humidity
24041;DHT22;12246;47.612;18.906;2022-08-04T00:02:17;19.80;93.40
24041;DHT22;12246;47.612;18.906;2022-08-04T00:05:53;19.70;93.50
24041;DHT22;12246;47.612;18.906;2022-08-04T00:08:55;19.70;92.60
24041;DHT22;12246;47.612;18.906;2022-08-04T00:11:52;19.70;92.90
24041;DHT22;12246;47.612;18.906;2022-08-04T00:14:49;19.50;94.10
24041;DHT22;12246;47.612;18.906;2022-08-04T00:17:50;19.70;91.10
24041;DHT22;12246;47.612;18.906;2022-08-04T00:20:45;20.00;90.10
24041;DHT22;12246;47.612;18.906;2022-08-04T00:23:38;20.10;91.60
24041;DHT22;12246;47.612;18.906;2022-08-04T00:26:53;20.00;92.50
24041;DHT22;12246;47.612;18.906;2022-08-04T00:29:47;20.00;91.60
24041;DHT22;12246;47.612;18.906;2022-08-04T00:32:44;19.80;93.70
24041;DHT22;12246;47.612;18.906;2022-08-04T00:35:37;19.60;94.00
24041;DHT22;12246;47.612;18.906;2022-08-04T00:38:31;19.70;92.60
24041;DHT22;12246;47.612;18.906;2022-08-04T00:41:34;19.70;92.70
24041;DHT22;12246;47.612;18.906;2022-08-04T01:00:25;19.90;92.80
24041;DHT22;12246;47.612;18.906;2022-08-04T01:03:41;19.90;92.20
24041;DHT22;12246;47.612;18.906;2022-08-04T01:16:31;19.60;92.80
24041;DHT22;12246;47.612;18.906;2022-08-04T01:20:04;19.70;92.60
24041;DHT22;12246;47.612;18.906;2022-08-04T01:29:23;19.70;92.30
24041;DHT22;12246;47.612;18.906;2022-08-04T01:32:43;19.80;91.60
24041;DHT22;12246;47.612;18.906;2022-08-04T01:35:54;19.90;91.10
24041;DHT22;12246;47.612;18.906;2022-08-04T01:38:47;20.10;90.90
24041;DHT22;12246;47.612;18.906;2022-08-04T01:41:39;20.10;91.30
24041;DHT22;12246;47.612;18.906;2022-08-04T01:44:49;20.20;91.40
24041;DHT22;12246;47.612;18.906;2022-08-04T01:47:48;20.00;91.90
24041;DHT22;12246;47.612;18.906;2022-08-04T01:50:42;19.90;92.80
24041;DHT22;12246;47.612;18.906;2022-08-04T01:53:38;19.70;93.40
24041;DHT22;12246;47.612;18.906;2022-08-04T01:56:30;19.60;93.70
24041;DHT22;12246;47.612;18.906;2022-08-04T01:59:23;19.60;95.00
24041;DHT22;12246;47.612;18.906;2022-08-04T02:02:16;19.60;96.00
24041;DHT22;12246;47.612;18.906;2022-08-04T02:05:10;19.70;95.10
24041;DHT22;12246;47.612;18.906;2022-08-04T02:11:22;19.80;96.30
24041;DHT22;12246;47.612;18.906;2022-08-04T02:14:23;19.80;96.30
24041;DHT22;12246;47.612;18.906;2022-08-04T02:20:37;19.80;96.70
24041;DHT22;12246;47.612;18.906;2022-08-04T02:23:37;19.80;96.90
24041;DHT22;12246;47.612;18.906;2022-08-04T02:26:32;19.80;97.30
24041;DHT22;12246;47.612;18.906;2022-08-04T02:32:33;20.00;97.50
24041;DHT22;12246;47.612;18.906;2022-08-04T02:35:35;19.90;98.10
24041;DHT22;12246;47.612;18.906;2022-08-04T02:41:22;20.20;99.90
24041;DHT22;12246;47.612;18.906;2022-08-04T02:44:20;20.30;99.90
24041;DHT22;12246;47.612;18.906;2022-08-04T02:47:14;20.20;99.90
24041;DHT22;12246;47.612;18.906;2022-08-04T02:50:11;20.00;99.90
24041;DHT22;12246;47.612;18.906;2022-08-04T02:53:21;20.00;99.90
24041;DHT22;12246;47.612;18.906;2022-08-04T02:56:14;19.90;99.90
24041;DHT22;12246;47.612;18.906;2022-08-04T02:59:10;19.90;99.90
24041;DHT22;12246;47.612;18.906;2022-08-04T03:02:03;19.80;99.90
24041;DHT22;12246;47.612;18.906;2022-08-04T03:04:59;19.60;99.90
24041;DHT22;12246;47.612;18.906;2022-08-04T03:08:08;19.60;99.90
24041;DHT22;12246;47.612;18.906;2022-08-04T03:24:41;19.50;99.90
24041;DHT22;12246;47.612;18.906;2022-08-04T03:28:44;19.40;99.90
24041;DHT22;12246;47.612;18.906;2022-08-04T04:31:32;23.10;99.90
24041;DHT22;12246;47.612;18.906;2022-08-04T04:47:08;24.00;99.90
24041;DHT22;12246;47.612;18.906;2022-08-04T04:53:03;24.10;99.90
24041;DHT22;12246;47.612;18.906;2022-08-04T04:56:10;24.20;99.90
24041;DHT22;12246;47.612;18.906;2022-08-04T04:59:10;24.40;99.90
24041;DHT22;12246;47.612;18.906;2022-08-04T05:11:45;25.20;99.90
24041;DHT22;12246;47.612;18.906;2022-08-04T05:14:45;25.30;99.90
24041;DHT22;12246;47.612;18.906;2022-08-04T05:17:44;25.40;99.90
24041;DHT22;12246;47.612;18.906;2022-08-04T05:20:50;25.50;99.90
24041;DHT22;12246;47.612;18.906;2022-08-04T05:23:48;25.70;99.90
24041;DHT22;12246;47.612;18.906;2022-08-04T05:26:44;25.80;99.90
24041;DHT22;12246;47.612;18.906;2022-08-04T05:29:49;26.00;99.90
24041;DHT22;12246;47.612;18.906;2022-08-04T05:32:47;26.00;97.40
24041;DHT22;12246;47.612;18.906;2022-08-04T05:35:49;26.20;96.70
24041;DHT22;12246;47.612;18.906;2022-08-04T05:39:03;26.00;98.10
24041;DHT22;12246;47.612;18.906;2022-08-04T05:41:58;26.20;96.40
24041;DHT22;12246;47.612;18.906;2022-08-04T05:44:57;26.40;97.40
24041;DHT22;12246;47.612;18.906;2022-08-04T05:47:51;26.70;96.00
24041;DHT22;12246;47.612;18.906;2022-08-04T05:50:45;26.60;96.20
24041;DHT22;12246;47.612;18.906;2022-08-04T05:53:40;26.40;95.90
24041;DHT22;12246;47.612;18.906;2022-08-04T05:56:35;26.40;96.10
24041;DHT22;12246;47.612;18.906;2022-08-04T05:59:29;26.10;96.90
24041;DHT22;12246;47.612;18.906;2022-08-04T06:02:23;25.80;96.70
24041;DHT22;12246;47.612;18.906;2022-08-04T06:05:16;25.80;98.10
24041;DHT22;12246;47.612;18.906;2022-08-04T06:08:09;25.90;98.50
24041;DHT22;12246;47.612;18.906;2022-08-04T06:11:07;25.80;96.80
24041;DHT22;12246;47.612;18.906;2022-08-04T06:14:03;25.60;97.00
24041;DHT22;12246;47.612;18.906;2022-08-04T06:16:56;25.90;96.40
24041;DHT22;12246;47.612;18.906;2022-08-04T06:19:50;26.30;95.60
24041;DHT22;12246;47.612;18.906;2022-08-04T06:22:58;26.70;93.60
24041;DHT22;12246;47.612;18.906;2022-08-04T06:25:54;26.60;92.80
24041;DHT22;12246;47.612;18.906;2022-08-04T06:28:51;26.40;92.50
24041;DHT22;12246;47.612;18.906;2022-08-04T06:31:44;26.40;93.70
24041;DHT22;12246;47.612;18.906;2022-08-04T06:35:00;26.50;93.30
24041;DHT22;12246;47.612;18.906;2022-08-04T06:37:55;26.60;92.00
24041;DHT22;12246;47.612;18.906;2022-08-04T06:40:56;26.60;92.00
24041;DHT22;12246;47.612;18.906;2022-08-04T06:43:50;27.20;91.20
24041;DHT22;12246;47.612;18.906;2022-08-04T06:46:43;27.40;90.60
24041;DHT22;12246;47.612;18.906;2022-08-04T06:49:37;27.30;89.80
24041;DHT22;12246;47.612;18.906;2022-08-04T06:52:50;27.20;88.90
24041;DHT22;12246;47.612;18.906;2022-08-04T06:55:45;27.40;88.30
24041;DHT22;12246;47.612;18.906;2022-08-04T06:58:38;27.40;90.00
24041;DHT22;12246;47.612;18.906;2022-08-04T07:01:32;27.40;88.50
24041;DHT22;12246;47.612;18.906;2022-08-04T07:04:26;27.80;88.70
24041;DHT22;12246;47.612;18.906;2022-08-04T07:07:19;27.60;89.40
24041;DHT22;12246;47.612;18.906;2022-08-04T07:10:29;28.00;88.30
24041;DHT22;12246;47.612;18.906;2022-08-04T07:13:22;27.70;86.90
24041;DHT22;12246;47.612;18.906;2022-08-04T07:16:17;27.80;87.90
24041;DHT22;12246;47.612;18.906;2022-08-04T07:19:21;27.80;84.10
24041;DHT22;12246;47.612;18.906;2022-08-04T07:22:14;27.60;85.90
24041;DHT22;12246;47.612;18.906;2022-08-04T07:25:17;27.50;85.80
24041;DHT22;12246;47.612;18.906;2022-08-04T07:28:13;27.30;85.70
24041;DHT22;12246;47.612;18.906;2022-08-04T07:31:06;27.30;84.90
24041;DHT22;12246;47.612;18.906;2022-08-04T07:34:01;27.30;86.00
24041;DHT22;12246;47.612;18.906;2022-08-04T07:37:12;27.20;85.70
24041;DHT22;12246;47.612;18.906;2022-08-04T07:40:05;27.20;86.30
24041;DHT22;12246;47.612;18.906;2022-08-04T07:42:58;27.50;85.50
24041;DHT22;12246;47.612;18.906;2022-08-04T07:45:50;27.70;84.70
24041;DHT22;12246;47.612;18.906;2022-08-04T07:48:44;27.70;84.20
24041;DHT22;12246;47.612;18.906;2022-08-04T07:51:37;27.60;84.00
24041;DHT22;12246;47.612;18.906;2022-08-04T07:54:29;27.50;85.40
24041;DHT22;12246;47.612;18.906;2022-08-04T07:57:22;27.80;85.10
24041;DHT22;12246;47.612;18.906;2022-08-04T08:00:32;27.90;83.70
24041;DHT22;12246;47.612;18.906;2022-08-04T08:03:25;28.20;83.90
24041;DHT22;12246;47.612;18.906;2022-08-04T08:06:18;28.40;84.10
24041;DHT22;12246;47.612;18.906;2022-08-04T08:09:25;28.30;82.70
24041;DHT22;12246;47.612;18.906;2022-08-04T08:12:17;28.30;83.00
24041;DHT22;12246;47.612;18.906;2022-08-04T08:15:30;28.30;82.80
24041;DHT22;12246;47.612;18.906;2022-08-04T08:18:23;28.50;83.30
24041;DHT22;12246;47.612;18.906;2022-08-04T08:21:19;28.80;83.80
24041;DHT22;12246;47.612;18.906;2022-08-04T08:24:12;28.80;81.70
24041;DHT22;12246;47.612;18.906;2022-08-04T08:27:06;28.90;82.30
24041;DHT22;12246;47.612;18.906;2022-08-04T08:29:58;29.10;82.30
24041;DHT22;12246;47.612;18.906;2022-08-04T08:32:50;28.90;80.30
24041;DHT22;12246;47.612;18.906;2022-08-04T08:35:51;29.20;80.20
24041;DHT22;12246;47.612;18.906;2022-08-04T08:48:52;28.90;80.30
24041;DHT22;12246;47.612;18.906;2022-08-04T08:56:25;29.30;78.40
24041;DHT22;12246;47.612;18.906;2022-08-04T08:59:47;29.30;78.00
24041;DHT22;12246;47.612;18.906;2022-08-04T09:09:42;30.10;79.60
24041;DHT22;12246;47.612;18.906;2022-08-04T09:12:51;30.20;75.10
24041;DHT22;12246;47.612;18.906;2022-08-04T09:19:49;30.10;76.20
24041;DHT22;12246;47.612;18.906;2022-08-04T09:26:11;30.20;74.50
24041;DHT22;12246;47.612;18.906;2022-08-04T09:45:05;30.50;71.10
24041;DHT22;12246;47.612;18.906;2022-08-04T09:48:11;31.10;72.50
24041;DHT22;12246;47.612;18.906;2022-08-04T09:51:13;31.50;68.80
24041;DHT22;12246;47.612;18.906;2022-08-04T10:00:28;32.00;68.30
24041;DHT22;12246;47.612;18.906;2022-08-04T10:03:35;31.60;67.10
24041;DHT22;12246;47.612;18.906;2022-08-04T10:06:47;31.10;68.90
24041;DHT22;12246;47.612;18.906;2022-08-04T10:16:25;30.90;67.60
24041;DHT22;12246;47.612;18.906;2022-08-04T10:19:26;30.90;67.20
24041;DHT22;12246;47.612;18.906;2022-08-04T10:22:25;30.90;67.00
24041;DHT22;12246;47.612;18.906;2022-08-04T10:35:13;31.80;65.90
24041;DHT22;12246;47.612;18.906;2022-08-04T10:41:36;31.40;65.20
24041;DHT22;12246;47.612;18.906;2022-08-04T10:47:55;31.80;67.50
24041;DHT22;12246;47.612;18.906;2022-08-04T10:51:01;32.10;64.70
24041;DHT22;12246;47.612;18.906;2022-08-04T10:53:58;31.90;63.00
24041;DHT22;12246;47.612;18.906;2022-08-04T10:56:58;32.00;63.50
24041;DHT22;12246;47.612;18.906;2022-08-04T10:59:57;32.10;62.50
24041;DHT22;12246;47.612;18.906;2022-08-04T11:05:55;31.90;62.80
24041;DHT22;12246;47.612;18.906;2022-08-04T11:08:50;32.10;64.50
24041;DHT22;12246;47.612;18.906;2022-08-04T11:11:52;32.10;63.00
24041;DHT22;12246;47.612;18.906;2022-08-04T11:15:11;32.30;63.20
24041;DHT22;12246;47.612;18.906;2022-08-04T11:18:11;32.90;62.30
24041;DHT22;12246;47.612;18.906;2022-08-04T11:21:18;32.70;60.00
24041;DHT22;12246;47.612;18.906;2022-08-04T11:24:21;32.20;61.90
24041;DHT22;12246;47.612;18.906;2022-08-04T11:27:27;31.80;61.90
24041;DHT22;12246;47.612;18.906;2022-08-04T11:30:20;31.60;62.80
24041;DHT22;12246;47.612;18.906;2022-08-04T11:37:02;31.70;61.80
24041;DHT22;12246;47.612;18.906;2022-08-04T11:46:58;32.30;61.60
24041;DHT22;12246;47.612;18.906;2022-08-04T11:50:01;32.30;62.60
24041;DHT22;12246;47.612;18.906;2022-08-04T11:52:56;32.30;62.10
24041;DHT22;12246;47.612;18.906;2022-08-04T11:55:51;32.00;61.70
24041;DHT22;12246;47.612;18.906;2022-08-04T11:59:01;32.10;62.70
24041;DHT22;12246;47.612;18.906;2022-08-04T12:05:05;31.90;61.80
24041;DHT22;12246;47.612;18.906;2022-08-04T12:08:16;31.90;61.90
24041;DHT22;12246;47.612;18.906;2022-08-04T12:14:54;32.40;62.30
24041;DHT22;12246;47.612;18.906;2022-08-04T12:21:22;32.50;62.50
24041;DHT22;12246;47.612;18.906;2022-08-04T12:24:20;32.50;59.80
24041;DHT22;12246;47.612;18.906;2022-08-04T12:27:17;32.50;61.80
24041;DHT22;12246;47.612;18.906;2022-08-04T12:30:18;32.50;58.90
24041;DHT22;12246;47.612;18.906;2022-08-04T12:33:53;32.30;61.60
24041;DHT22;12246;47.612;18.906;2022-08-04T12:37:17;32.40;59.00
24041;DHT22;12246;47.612;18.906;2022-08-04T12:40:25;32.30;60.10
24041;DHT22;12246;47.612;18.906;2022-08-04T12:43:39;32.50;61.00
24041;DHT22;12246;47.612;18.906;2022-08-04T12:46:33;32.50;59.10
24041;DHT22;12246;47.612;18.906;2022-08-04T12:49:27;32.60;61.50
24041;DHT22;12246;47.612;18.906;2022-08-04T12:52:20;32.70;58.50
24041;DHT22;12246;47.612;18.906;2022-08-04T12:55:28;32.60;58.70
24041;DHT22;12246;47.612;18.906;2022-08-04T12:58:23;32.50;59.00
24041;DHT22;12246;47.612;18.906;2022-08-04T13:01:35;32.30;59.20
24041;DHT22;12246;47.612;18.906;2022-08-04T13:04:48;31.70;59.20
24041;DHT22;12246;47.612;18.906;2022-08-04T13:07:47;31.40;59.80
24041;DHT22;12246;47.612;18.906;2022-08-04T13:10:45;31.20;59.40
24041;DHT22;12246;47.612;18.906;2022-08-04T13:13:39;31.10;60.00
24041;DHT22;12246;47.612;18.906;2022-08-04T13:16:32;31.20;59.90
24041;DHT22;12246;47.612;18.906;2022-08-04T13:19:25;31.20;60.10
24041;DHT22;12246;47.612;18.906;2022-08-04T13:22:25;31.20;60.90
24041;DHT22;12246;47.612;18.906;2022-08-04T13:25:17;31.20;60.50
24041;DHT22;12246;47.612;18.906;2022-08-04T13:28:32;31.10;60.10
24041;DHT22;12246;47.612;18.906;2022-08-04T13:31:35;31.00;59.70
24041;DHT22;12246;47.612;18.906;2022-08-04T13:34:28;31.10;59.50
24041;DHT22;12246;47.612;18.906;2022-08-04T13:37:32;31.20;60.20
24041;DHT22;12246;47.612;18.906;2022-08-04T13:40:27;31.50;60.70
24041;DHT22;12246;47.612;18.906;2022-08-04T13:43:28;31.70;58.90
24041;DHT22;12246;47.612;18.906;2022-08-04T13:46:50;31.90;60.30
24041;DHT22;12246;47.612;18.906;2022-08-04T13:50:05;32.10;60.30
24041;DHT22;12246;47.612;18.906;2022-08-04T13:53:02;32.40;57.90
24041;DHT22;12246;47.612;18.906;2022-08-04T13:55:58;32.40;58.10
24041;DHT22;12246;47.612;18.906;2022-08-04T13:58:55;32.20;58.20
24041;DHT22;12246;47.612;18.906;2022-08-04T14:01:59;32.20;58.20
24041;DHT22;12246;47.612;18.906;2022-08-04T14:04:54;32.10;58.30
24041;DHT22;12246;47.612;18.906;2022-08-04T14:08:07;32.10;57.30
24041;DHT22;12246;47.612;18.906;2022-08-04T14:11:00;32.10;58.60
24041;DHT22;12246;47.612;18.906;2022-08-04T14:13:52;32.20;58.20
24041;DHT22;12246;47.612;18.906;2022-08-04T14:17:02;32.30;58.50
24041;DHT22;12246;47.612;18.906;2022-08-04T14:19:56;32.20;58.70
24041;DHT22;12246;47.612;18.906;2022-08-04T14:22:48;32.10;57.10
24041;DHT22;12246;47.612;18.906;2022-08-04T14:25:40;32.00;57.10
24041;DHT22;12246;47.612;18.906;2022-08-04T14:28:33;32.10;56.60
24041;DHT22;12246;47.612;18.906;2022-08-04T14:31:49;32.20;57.10
24041;DHT22;12246;47.612;18.906;2022-08-04T14:34:49;32.30;56.00
24041;DHT22;12246;47.612;18.906;2022-08-04T14:37:55;32.50;57.50
24041;DHT22;12246;47.612;18.906;2022-08-04T14:40:58;32.50;57.10
24041;DHT22;12246;47.612;18.906;2022-08-04T14:43:55;32.50;57.10
24041;DHT22;12246;47.612;18.906;2022-08-04T14:46:53;32.40;56.70
24041;DHT22;12246;47.612;18.906;2022-08-04T14:49:53;32.10;57.00
24041;DHT22;12246;47.612;18.906;2022-08-04T14:52:46;32.20;56.50
24041;DHT22;12246;47.612;18.906;2022-08-04T14:55:43;32.20;57.30
24041;DHT22;12246;47.612;18.906;2022-08-04T14:58:35;32.20;57.40
24041;DHT22;12246;47.612;18.906;2022-08-04T15:01:31;32.10;56.40
24041;DHT22;12246;47.612;18.906;2022-08-04T15:04:23;32.10;56.20
24041;DHT22;12246;47.612;18.906;2022-08-04T15:07:18;32.20;57.10
24041;DHT22;12246;47.612;18.906;2022-08-04T15:10:10;32.10;57.00
24041;DHT22;12246;47.612;18.906;2022-08-04T15:13:05;31.90;57.10
24041;DHT22;12246;47.612;18.906;2022-08-04T15:15:58;31.90;57.70
24041;DHT22;12246;47.612;18.906;2022-08-04T15:18:59;31.90;56.80
24041;DHT22;12246;47.612;18.906;2022-08-04T15:21:52;32.00;57.10
24041;DHT22;12246;47.612;18.906;2022-08-04T15:24:44;32.10;56.10
24041;DHT22;12246;47.612;18.906;2022-08-04T15:27:47;32.10;55.80
24041;DHT22;12246;47.612;18.906;2022-08-04T15:30:41;32.10;56.90
24041;DHT22;12246;47.612;18.906;2022-08-04T15:33:38;32.20;55.90
24041;DHT22;12246;47.612;18.906;2022-08-04T15:39:57;32.10;56.50
24041;DHT22;12246;47.612;18.906;2022-08-04T15:46:10;32.00;57.20
24041;DHT22;12246;47.612;18.906;2022-08-04T15:49:24;31.90;56.20
24041;DHT22;12246;47.612;18.906;2022-08-04T15:52:16;32.10;57.20
24041;DHT22;12246;47.612;18.906;2022-08-04T15:55:37;32.00;56.70
24041;DHT22;12246;47.612;18.906;2022-08-04T15:58:48;31.90;56.30
24041;DHT22;12246;47.612;18.906;2022-08-04T16:01:40;31.80;56.80
24041;DHT22;12246;47.612;18.906;2022-08-04T16:08:11;31.80;55.80
24041;DHT22;12246;47.612;18.906;2022-08-04T16:11:03;31.80;55.10
24041;DHT22;12246;47.612;18.906;2022-08-04T16:17:20;31.90;55.90
24041;DHT22;12246;47.612;18.906;2022-08-04T16:20:13;31.80;55.30
24041;DHT22;12246;47.612;18.906;2022-08-04T16:23:28;31.70;55.00
24041;DHT22;12246;47.612;18.906;2022-08-04T16:26:49;31.70;55.20
24041;DHT22;12246;47.612;18.906;2022-08-04T16:29:47;31.60;55.50
24041;DHT22;12246;47.612;18.906;2022-08-04T16:32:44;31.50;55.70
24041;DHT22;12246;47.612;18.906;2022-08-04T16:35:36;31.50;56.70
24041;DHT22;12246;47.612;18.906;2022-08-04T16:38:59;31.50;56.90
24041;DHT22;12246;47.612;18.906;2022-08-04T16:41:53;31.40;56.80
24041;DHT22;12246;47.612;18.906;2022-08-04T16:45:15;31.40;57.40
24041;DHT22;12246;47.612;18.906;2022-08-04T16:48:08;31.40;57.50
24041;DHT22;12246;47.612;18.906;2022-08-04T16:51:09;31.30;56.00
24041;DHT22;12246;47.612;18.906;2022-08-04T16:54:04;31.40;56.60
24041;DHT22;12246;47.612;18.906;2022-08-04T16:56:58;31.40;56.80
24041;DHT22;12246;47.612;18.906;2022-08-04T16:59:51;31.40;57.20
24041;DHT22;12246;47.612;18.906;2022-08-04T17:02:43;31.20;57.10
24041;DHT22;12246;47.612;18.906;2022-08-04T17:05:39;31.10;57.10
24041;DHT22;12246;47.612;18.906;2022-08-04T17:08:31;31.10;57.20
24041;DHT22;12246;47.612;18.906;2022-08-04T17:11:30;31.00;57.40
24041;DHT22;12246;47.612;18.906;2022-08-04T17:14:27;30.90;58.00
24041;DHT22;12246;47.612;18.906;2022-08-04T17:17:22;30.80;58.80
24041;DHT22;12246;47.612;18.906;2022-08-04T17:20:14;30.70;59.30
24041;DHT22;12246;47.612;18.906;2022-08-04T17:23:25;30.60;59.50
24041;DHT22;12246;47.612;18.906;2022-08-04T17:26:38;30.50;59.80
24041;DHT22;12246;47.612;18.906;2022-08-04T17:29:43;30.30;60.30
24041;DHT22;12246;47.612;18.906;2022-08-04T17:32:36;30.20;59.80
24041;DHT22;12246;47.612;18.906;2022-08-04T17:35:31;30.10;60.50
24041;DHT22;12246;47.612;18.906;2022-08-04T17:38:46;30.00;60.60
24041;DHT22;12246;47.612;18.906;2022-08-04T17:41:42;29.90;61.40
24041;DHT22;12246;47.612;18.906;2022-08-04T17:44:40;29.80;62.90
24041;DHT22;12246;47.612;18.906;2022-08-04T17:47:33;29.80;64.60
24041;DHT22;12246;47.612;18.906;2022-08-04T17:50:30;29.70;65.10
24041;DHT22;12246;47.612;18.906;2022-08-04T17:53:32;29.50;64.90
24041;DHT22;12246;47.612;18.906;2022-08-04T17:56:47;29.50;65.60
24041;DHT22;12246;47.612;18.906;2022-08-04T17:59:46;29.40;65.10
24041;DHT22;12246;47.612;18.906;2022-08-04T18:02:52;29.30;65.40
24041;DHT22;12246;47.612;18.906;2022-08-04T18:05:45;29.20;65.60
24041;DHT22;12246;47.612;18.906;2022-08-04T18:08:55;29.10;65.80
24041;DHT22;12246;47.612;18.906;2022-08-04T18:12:11;28.90;66.00
24041;DHT22;12246;47.612;18.906;2022-08-04T18:15:09;28.80;66.50
24041;DHT22;12246;47.612;18.906;2022-08-04T18:18:20;28.60;66.80
24041;DHT22;12246;47.612;18.906;2022-08-04T18:21:14;28.40;66.70
24041;DHT22;12246;47.612;18.906;2022-08-04T18:24:07;28.30;67.70
24041;DHT22;12246;47.612;18.906;2022-08-04T18:27:02;28.10;67.00
24041;DHT22;12246;47.612;18.906;2022-08-04T18:30:15;28.00;68.10
24041;DHT22;12246;47.612;18.906;2022-08-04T18:33:28;27.90;68.90
24041;DHT22;12246;47.612;18.906;2022-08-04T18:36:33;27.80;68.80
24041;DHT22;12246;47.612;18.906;2022-08-04T18:39:29;27.70;69.70
24041;DHT22;12246;47.612;18.906;2022-08-04T18:42:41;27.50;70.50
24041;DHT22;12246;47.612;18.906;2022-08-04T18:45:34;27.40;71.80
24041;DHT22;12246;47.612;18.906;2022-08-04T18:48:27;27.30;71.80
24041;DHT22;12246;47.612;18.906;2022-08-04T18:51:28;27.30;71.50
24041;DHT22;12246;47.612;18.906;2022-08-04T18:54:22;27.30;71.00
24041;DHT22;12246;47.612;18.906;2022-08-04T18:57:24;27.20;71.70
24041;DHT22;12246;47.612;18.906;2022-08-04T19:00:36;27.20;71.10
24041;DHT22;12246;47.612;18.906;2022-08-04T19:03:36;27.10;71.00
24041;DHT22;12246;47.612;18.906;2022-08-04T19:06:35;27.10;71.60
24041;DHT22;12246;47.612;18.906;2022-08-04T19:09:28;26.90;72.40
24041;DHT22;12246;47.612;18.906;2022-08-04T19:12:40;26.80;74.20
24041;DHT22;12246;47.612;18.906;2022-08-04T19:15:32;26.70;74.30
24041;DHT22;12246;47.612;18.906;2022-08-04T19:18:25;26.40;76.50
24041;DHT22;12246;47.612;18.906;2022-08-04T19:21:19;26.10;78.30
24041;DHT22;12246;47.612;18.906;2022-08-04T19:24:31;25.90;78.30
24041;DHT22;12246;47.612;18.906;2022-08-04T19:27:26;25.70;79.10
24041;DHT22;12246;47.612;18.906;2022-08-04T19:30:31;25.70;79.50
24041;DHT22;12246;47.612;18.906;2022-08-04T19:33:23;25.70;79.70
24041;DHT22;12246;47.612;18.906;2022-08-04T19:36:16;25.60;79.70
24041;DHT22;12246;47.612;18.906;2022-08-04T19:39:08;25.60;81.10
24041;DHT22;12246;47.612;18.906;2022-08-04T19:42:03;25.50;81.40
24041;DHT22;12246;47.612;18.906;2022-08-04T19:44:58;25.30;81.20
24041;DHT22;12246;47.612;18.906;2022-08-04T19:47:50;25.20;80.70
24041;DHT22;12246;47.612;18.906;2022-08-04T19:51:02;25.10;80.50
24041;DHT22;12246;47.612;18.906;2022-08-04T19:53:55;25.00;80.10
24041;DHT22;12246;47.612;18.906;2022-08-04T19:57:07;24.90;80.30
24041;DHT22;12246;47.612;18.906;2022-08-04T20:00:03;25.00;80.30
24041;DHT22;12246;47.612;18.906;2022-08-04T20:02:56;25.00;79.20
24041;DHT22;12246;47.612;18.906;2022-08-04T20:05:51;25.10;79.40
24041;DHT22;12246;47.612;18.906;2022-08-04T20:08:46;25.00;79.70
24041;DHT22;12246;47.612;18.906;2022-08-04T20:11:39;24.90;81.10
24041;DHT22;12246;47.612;18.906;2022-08-04T20:14:34;24.80;81.00
24041;DHT22;12246;47.612;18.906;2022-08-04T20:17:26;24.80;81.80
24041;DHT22;12246;47.612;18.906;2022-08-04T20:20:39;24.70;82.20
24041;DHT22;12246;47.612;18.906;2022-08-04T20:23:31;24.60;82.00
24041;DHT22;12246;47.612;18.906;2022-08-04T20:26:40;24.60;81.30
24041;DHT22;12246;47.612;18.906;2022-08-04T20:29:39;24.60;81.40
24041;DHT22;12246;47.612;18.906;2022-08-04T20:32:34;24.60;81.70
24041;DHT22;12246;47.612;18.906;2022-08-04T20:35:28;24.50;82.40
24041;DHT22;12246;47.612;18.906;2022-08-04T20:38:21;24.30;83.20
24041;DHT22;12246;47.612;18.906;2022-08-04T20:41:25;24.30;83.70
24041;DHT22;12246;47.612;18.906;2022-08-04T20:44:27;24.20;83.80
24041;DHT22;12246;47.612;18.906;2022-08-04T20:47:20;24.10;84.30
24041;DHT22;12246;47.612;18.906;2022-08-04T20:50:13;24.00;84.60
24041;DHT22;12246;47.612;18.906;2022-08-04T20:53:05;24.00;85.40
24041;DHT22;12246;47.612;18.906;2022-08-04T20:56:17;23.80;86.40
24041;DHT22;12246;47.612;18.906;2022-08-04T20:59:22;23.70;87.20
24041;DHT22;12246;47.612;18.906;2022-08-04T21:02:15;23.70;88.50
24041;DHT22;12246;47.612;18.906;2022-08-04T21:05:07;23.60;88.70
24041;DHT22;12246;47.612;18.906;2022-08-04T21:08:00;23.50;89.70
24041;DHT22;12246;47.612;18.906;2022-08-04T21:10:52;23.40;90.30
24041;DHT22;12246;47.612;18.906;2022-08-04T21:13:45;23.30;90.90
24041;DHT22;12246;47.612;18.906;2022-08-04T21:16:44;23.20;91.30
24041;DHT22;12246;47.612;18.906;2022-08-04T21:19:56;23.10;91.50
24041;DHT22;12246;47.612;18.906;2022-08-04T21:22:48;23.20;91.60
24041;DHT22;12246;47.612;18.906;2022-08-04T21:25:41;23.10;91.60
24041;DHT22;12246;47.612;18.906;2022-08-04T21:28:34;23.00;92.10
24041;DHT22;12246;47.612;18.906;2022-08-04T21:31:27;23.10;92.20
24041;DHT22;12246;47.612;18.906;2022-08-04T21:34:19;23.10;91.90
24041;DHT22;12246;47.612;18.906;2022-08-04T21:37:31;23.20;92.20
24041;DHT22;12246;47.612;18.906;2022-08-04T21:40:50;23.10;92.40
24041;DHT22;12246;47.612;18.906;2022-08-04T21:43:44;23.10;93.00
24041;DHT22;12246;47.612;18.906;2022-08-04T21:46:37;23.00;92.80
24041;DHT22;12246;47.612;18.906;2022-08-04T21:49:35;23.00;93.00
24041;DHT22;12246;47.612;18.906;2022-08-04T21:52:47;22.90;93.50
24041;DHT22;12246;47.612;18.906;2022-08-04T21:55:40;22.90;93.90
24041;DHT22;12246;47.612;18.906;2022-08-04T21:58:52;22.80;94.90
24041;DHT22;12246;47.612;18.906;2022-08-04T22:01:48;22.50;95.10
24041;DHT22;12246;47.612;18.906;2022-08-04T22:04:45;22.30;95.50
24041;DHT22;12246;47.612;18.906;2022-08-04T22:07:40;22.30;96.20
24041;DHT22;12246;47.612;18.906;2022-08-04T22:10:42;22.20;97.60
24041;DHT22;12246;47.612;18.906;2022-08-04T22:13:35;22.10;99.00
24041;DHT22;12246;47.612;18.906;2022-08-04T22:16:47;22.00;99.10
24041;DHT22;12246;47.612;18.906;2022-08-04T22:19:45;21.90;99.80
24041;DHT22;12246;47.612;18.906;2022-08-04T22:22:47;22.00;99.30
24041;DHT22;12246;47.612;18.906;2022-08-04T22:25:42;22.10;99.50
24041;DHT22;12246;47.612;18.906;2022-08-04T22:28:44;22.00;99.70
24041;DHT22;12246;47.612;18.906;2022-08-04T22:31:40;22.00;99.90
24041;DHT22;12246;47.612;18.906;2022-08-04T22:34:48;22.00;99.90
24041;DHT22;12246;47.612;18.906;2022-08-04T22:37:45;22.00;99.90
24041;DHT22;12246;47.612;18.906;2022-08-04T22:40:59;21.90;99.90
24041;DHT22;12246;47.612;18.906;2022-08-04T22:43:51;21.70;99.90
24041;DHT22;12246;47.612;18.906;2022-08-04T22:46:46;21.70;99.90
24041;DHT22;12246;47.612;18.906;2022-08-04T22:49:39;21.70;99.90
24041;DHT22;12246;47.612;18.906;2022-08-04T22:52:31;21.70;99.90